Time;durP1;ratioP1;P1;durP2;ratioP2;P2;SDS_P1;SDS_P2;PMS_P1;PMS_P2;Temp;Humidity;BMP_temperature;BMP_pressure;BME280_temperature;BME280_humidity;BME280_pressure;Samples;Min_cycle;Max_cycle;Signal;HPM_P1;HPM_P2
2022/12/21 00:01:20;;;;;;;125.20;41.87;;;9.90;99.90;;;;;;5031250;28;20453;-86
2022/12/21 00:03:46;;;;;;;126.97;42.70;;;9.90;99.90;;;;;;5032063;28;20026;-86
2022/12/21 00:06:12;;;;;;;114.77;40.70;;;9.80;99.90;;;;;;5017963;28;20026;-86
2022/12/21 00:08:41;;;;;;;134.67;46.40;;;9.80;99.90;;;;;;5031474;28;20026;-86
2022/12/21 00:11:07;;;;;;;143.50;44.57;;;9.80;99.90;;;;;;5016305;28;20101;-86
2022/12/21 00:13:33;;;;;;;135.30;44.47;;;9.80;99.90;;;;;;5031042;28;20060;-86
2022/12/21 00:16:02;;;;;;;134.80;45.87;;;9.80;99.90;;;;;;5031175;28;20057;-86
2022/12/21 00:18:31;;;;;;;149.17;47.70;;;9.80;99.90;;;;;;5030811;28;20485;-86
2022/12/21 00:21:01;;;;;;;138.80;45.97;;;9.80;99.90;;;;;;5031091;28;20351;-86
2022/12/21 00:23:27;;;;;;;143.33;45.77;;;9.80;99.90;;;;;;5015523;28;20034;-84
2022/12/21 00:25:52;;;;;;;145.43;45.63;;;9.80;99.90;;;;;;5030977;28;20037;-84
2022/12/21 00:28:18;;;;;;;135.03;45.93;;;9.80;99.90;;;;;;5031024;28;20034;-83
2022/12/21 00:30:44;;;;;;;140.33;45.13;;;9.70;99.90;;;;;;5030963;28;20026;-85
2022/12/21 00:33:10;;;;;;;145.37;46.07;;;9.70;99.90;;;;;;5031204;28;20022;-83
2022/12/21 00:35:35;;;;;;;151.37;45.90;;;9.70;99.90;;;;;;5014295;28;20490;-84
2022/12/21 00:38:01;;;;;;;140.90;44.53;;;9.70;99.90;;;;;;5030944;28;20040;-86
2022/12/21 00:40:27;;;;;;;140.23;44.83;;;9.70;99.90;;;;;;5031330;28;20041;-86
2022/12/21 00:42:53;;;;;;;139.23;45.17;;;9.70;99.90;;;;;;5031184;28;20041;-86
2022/12/21 00:45:18;;;;;;;157.90;47.33;;;9.70;99.90;;;;;;4999222;28;20117;-86
2022/12/21 00:47:44;;;;;;;155.43;47.83;;;9.70;99.90;;;;;;5032993;28;20034;-86
2022/12/21 00:50:09;;;;;;;144.53;44.50;;;9.70;99.90;;;;;;5035137;28;20053;-85
2022/12/21 00:52:35;;;;;;;161.20;45.93;;;9.70;99.90;;;;;;5019899;28;21076;-85
2022/12/21 00:55:01;;;;;;;126.93;41.13;;;9.70;99.90;;;;;;5035372;28;20026;-87
2022/12/21 00:57:27;;;;;;;142.60;44.23;;;9.70;99.90;;;;;;5017552;28;20501;-85
2022/12/21 00:59:53;;;;;;;137.10;43.67;;;9.70;99.90;;;;;;5018491;28;20569;-85
2022/12/21 01:02:19;;;;;;;150.50;43.93;;;9.70;99.90;;;;;;5005150;28;20064;-86
2022/12/21 01:04:44;;;;;;;150.87;45.13;;;9.80;99.90;;;;;;5031722;28;20079;-85
2022/12/21 01:07:10;;;;;;;148.17;45.73;;;9.80;99.90;;;;;;5030768;28;20065;-85
2022/12/21 01:09:35;;;;;;;145.53;44.03;;;9.80;99.90;;;;;;5014655;28;20042;-84
2022/12/21 01:12:01;;;;;;;180.63;45.93;;;9.70;99.90;;;;;;5030429;28;20030;-85
2022/12/21 01:14:27;;;;;;;163.17;44.53;;;9.80;99.90;;;;;;5029971;28;20054;-86
2022/12/21 01:16:52;;;;;;;150.43;43.70;;;9.80;99.90;;;;;;5014712;28;20022;-86
2022/12/21 01:19:18;;;;;;;153.67;44.60;;;9.80;99.90;;;;;;5013689;28;20499;-86
2022/12/21 01:21:44;;;;;;;128.27;40.23;;;9.80;99.90;;;;;;5013240;28;20100;-85
2022/12/21 01:24:12;;;;;;;150.23;43.70;;;9.80;99.90;;;;;;5030130;28;20030;-86
2022/12/21 01:26:38;;;;;;;139.57;41.80;;;9.80;99.90;;;;;;5014858;28;20520;-86
2022/12/21 01:29:04;;;;;;;158.33;41.40;;;9.80;99.90;;;;;;5014899;28;20034;-85
2022/12/21 01:31:30;;;;;;;146.23;43.50;;;9.80;99.90;;;;;;5029999;28;20095;-85
2022/12/21 01:33:55;;;;;;;147.33;43.50;;;9.80;99.90;;;;;;5014177;28;20045;-85
2022/12/21 01:36:22;;;;;;;136.10;40.33;;;9.80;99.90;;;;;;5012792;28;20050;-85
2022/12/21 01:38:48;;;;;;;145.00;40.83;;;9.80;99.90;;;;;;5014572;28;20026;-85
2022/12/21 01:41:20;;;;;;;149.83;41.93;;;9.80;99.90;;;;;;4996694;28;20033;-86
2022/12/21 01:43:54;;;;;;;137.40;40.60;;;9.80;99.90;;;;;;5014965;28;20037;-86
2022/12/21 01:46:26;;;;;;;130.68;41.55;;;9.80;99.90;;;;;;5029635;28;20101;-86
2022/12/21 01:49:04;;;;;;;144.73;44.47;;;9.80;99.90;;;;;;5013363;28;20018;-87
2022/12/21 01:51:32;;;;;;;124.97;41.10;;;9.70;99.90;;;;;;5029867;28;20029;-87
2022/12/21 01:54:05;;;;;;;142.10;43.83;;;9.70;99.90;;;;;;5029928;28;20033;-85
2022/12/21 01:56:36;;;;;;;129.50;42.50;;;9.70;99.90;;;;;;5013455;28;20026;-86
2022/12/21 01:59:16;;;;;;;144.33;44.00;;;9.70;99.90;;;;;;5013282;28;20017;-86
2022/12/21 02:01:42;;;;;;;149.17;44.37;;;9.70;99.90;;;;;;5014068;28;20493;-85
2022/12/21 02:04:08;;;;;;;145.33;40.53;;;9.70;99.90;;;;;;5012910;28;20030;-85
2022/12/21 02:06:48;;;;;;;143.67;41.40;;;9.70;99.90;;;;;;5029045;28;20371;-85
2022/12/21 02:09:16;;;;;;;164.40;43.07;;;9.70;99.90;;;;;;5029195;28;20034;-86
2022/12/21 02:11:42;;;;;;;125.57;40.23;;;9.70;99.90;;;;;;5013793;28;20420;-83
2022/12/21 02:14:12;;;;;;;140.63;40.03;;;9.70;99.90;;;;;;5012493;28;20120;-84
2022/12/21 02:16:56;;;;;;;124.53;40.53;;;9.70;99.90;;;;;;5014174;28;20505;-86
2022/12/21 02:19:21;;;;;;;120.97;40.72;;;9.70;99.90;;;;;;5029103;28;20037;-84
2022/12/21 02:22:01;;;;;;;138.80;40.90;;;9.70;99.90;;;;;;5013510;28;20041;-84
2022/12/21 02:25:14;;;;;;;128.63;39.23;;;9.70;99.90;;;;;;5013310;28;20036;-84
2022/12/21 02:28:53;;;;;;;125.33;39.53;;;9.70;99.90;;;;;;4952986;29;20030;-83
2022/12/21 02:31:36;;;;;;;135.57;38.03;;;9.60;99.90;;;;;;4879706;29;20033;-84
2022/12/21 02:34:16;;;;;;;128.13;37.83;;;9.60;99.90;;;;;;4989603;28;20422;-83
2022/12/21 02:37:01;;;;;;;128.80;38.83;;;9.60;99.90;;;;;;5012369;28;20042;-83
2022/12/21 02:39:35;;;;;;;163.43;40.07;;;9.60;99.90;;;;;;5032364;28;20026;-83
2022/12/21 02:44:12;;;;;;;123.47;36.43;;;9.60;99.90;;;;;;5016945;28;20067;-83
2022/12/21 02:45:12;;;;;;;124.00;36.97;;;9.60;99.90;;;;;;5016922;28;20034;-83
2022/12/21 02:48:04;;;;;;;133.67;37.40;;;9.60;99.90;;;;;;5015548;28;20068;-84
2022/12/21 02:50:37;;;;;;;126.07;38.27;;;9.60;99.90;;;;;;5015777;28;20026;-84
2022/12/21 02:53:20;;;;;;;152.10;40.97;;;9.60;99.90;;;;;;5016796;28;20026;-84
2022/12/21 02:55:45;;;;;;;129.60;39.70;;;9.50;99.90;;;;;;5032266;28;20461;-84
2022/12/21 02:58:20;;;;;;;133.73;41.60;;;9.60;99.90;;;;;;5032188;28;20057;-83
2022/12/21 03:00:52;;;;;;;134.07;40.63;;;9.50;99.90;;;;;;5031942;28;20030;-84
2022/12/21 03:03:48;;;;;;;136.73;41.67;;;9.50;99.90;;;;;;5016757;28;20378;-83
2022/12/21 03:06:23;;;;;;;142.30;40.57;;;9.50;99.90;;;;;;5016759;28;20034;-84
2022/12/21 03:09:13;;;;;;;139.57;40.90;;;9.50;99.90;;;;;;5031797;28;20026;-84
2022/12/21 03:11:45;;;;;;;134.80;40.37;;;9.50;99.90;;;;;;5016891;28;20107;-85
2022/12/21 03:14:21;;;;;;;128.60;41.53;;;9.40;99.90;;;;;;5016227;28;20405;-83
2022/12/21 03:16:51;;;;;;;145.60;43.07;;;9.40;99.90;;;;;;5032003;28;20026;-85
2022/12/21 03:19:20;;;;;;;147.03;42.30;;;9.40;99.90;;;;;;5016509;28;20053;-84
2022/12/21 03:21:59;;;;;;;123.57;38.57;;;9.40;99.90;;;;;;5016341;28;20474;-84
2022/12/21 03:24:28;;;;;;;122.57;39.60;;;9.40;99.90;;;;;;5015220;28;20025;-85
2022/12/21 03:27:05;;;;;;;143.97;41.03;;;9.40;99.90;;;;;;5031333;28;20069;-84
2022/12/21 03:29:36;;;;;;;152.97;45.43;;;9.40;99.90;;;;;;5016677;28;20076;-85
2022/12/21 03:32:34;;;;;;;150.13;43.40;;;9.40;99.90;;;;;;5016527;28;20026;-85
2022/12/21 03:35:05;;;;;;;146.87;41.80;;;9.40;99.90;;;;;;5031159;28;20038;-85
2022/12/21 03:37:35;;;;;;;134.77;40.77;;;9.40;99.90;;;;;;5016196;28;20052;-84
2022/12/21 03:40:19;;;;;;;121.70;37.37;;;9.40;99.90;;;;;;5016413;28;20029;-84
2022/12/21 03:42:51;;;;;;;143.93;34.15;;;9.40;99.90;;;;;;5031347;28;20037;-84
2022/12/21 03:45:28;;;;;;;127.07;37.00;;;9.40;99.90;;;;;;5031403;28;20418;-84
2022/12/21 03:48:04;;;;;;;151.03;42.70;;;9.40;99.90;;;;;;5031258;28;20040;-84
2022/12/21 03:50:35;;;;;;;136.10;42.60;;;9.40;99.90;;;;;;5016204;28;20466;-84
2022/12/21 03:53:10;;;;;;;153.60;41.97;;;9.40;99.90;;;;;;5015766;28;20096;-83
2022/12/21 03:55:38;;;;;;;158.97;44.20;;;9.40;99.90;;;;;;5015836;28;20033;-84
2022/12/21 03:58:05;;;;;;;135.07;42.40;;;9.40;99.90;;;;;;5015761;28;20029;-84
2022/12/21 04:00:41;;;;;;;151.47;42.57;;;9.40;99.90;;;;;;5016099;28;20544;-84
2022/12/21 04:03:38;;;;;;;156.47;42.37;;;9.40;99.90;;;;;;5029138;28;20041;-85
2022/12/21 04:06:13;;;;;;;160.53;41.00;;;9.40;99.90;;;;;;5014384;28;20095;-84
2022/12/21 04:08:39;;;;;;;155.97;42.87;;;9.40;99.90;;;;;;5030239;28;20045;-86
2022/12/21 04:11:05;;;;;;;154.20;43.03;;;9.50;99.90;;;;;;4998286;28;20041;-87
2022/12/21 04:13:31;;;;;;;149.63;41.90;;;9.40;99.90;;;;;;5016170;28;20030;-86
2022/12/21 04:16:05;;;;;;;148.87;41.93;;;9.40;99.90;;;;;;5030360;28;20029;-86
2022/12/21 04:21:19;;;;;;;184.03;41.53;;;9.40;99.90;;;;;;5015938;28;20121;-85
2022/12/21 04:29:13;;;;;;;196.80;38.47;;;9.40;99.90;;;;;;5027897;28;20441;-84
2022/12/21 04:31:39;;;;;;;151.00;39.10;;;9.40;99.90;;;;;;5015853;28;20033;-88
2022/12/21 04:34:05;;;;;;;156.93;39.13;;;9.40;99.90;;;;;;5030752;28;20032;-88
2022/12/21 04:39:15;;;;;;;211.80;43.70;;;9.30;99.90;;;;;;5015954;28;20040;-85
2022/12/21 04:41:41;;;;;;;193.07;43.80;;;9.40;99.90;;;;;;5014716;28;20469;-83
2022/12/21 04:44:07;;;;;;;159.00;42.67;;;9.30;99.90;;;;;;5031460;28;20045;-85
2022/12/21 04:46:32;;;;;;;198.83;43.13;;;9.40;99.90;;;;;;5031056;28;20083;-85
2022/12/21 04:48:58;;;;;;;145.10;41.37;;;9.30;99.90;;;;;;5031130;28;20064;-85
2022/12/21 04:51:24;;;;;;;141.87;40.97;;;9.30;99.90;;;;;;5030743;28;20371;-85
2022/12/21 04:53:51;;;;;;;133.00;41.20;;;9.30;99.90;;;;;;5030601;28;20084;-85
2022/12/21 04:56:17;;;;;;;142.97;40.83;;;9.20;99.90;;;;;;5031560;28;20390;-86
2022/12/21 04:58:44;;;;;;;138.13;40.17;;;9.30;99.90;;;;;;5034370;28;20030;-86
2022/12/21 05:01:21;;;;;;;140.77;41.63;;;9.30;99.90;;;;;;5031869;28;20536;-86
2022/12/21 05:03:48;;;;;;;137.63;40.53;;;9.30;99.90;;;;;;5020200;28;20032;-85
2022/12/21 05:06:15;;;;;;;124.83;39.03;;;9.30;99.90;;;;;;5018173;28;20030;-85
2022/12/21 05:08:42;;;;;;;121.80;38.53;;;9.30;99.90;;;;;;5034365;28;20025;-86
2022/12/21 05:11:19;;;;;;;138.63;42.10;;;9.30;99.90;;;;;;5033570;28;20057;-84
2022/12/21 05:13:46;;;;;;;146.97;46.07;;;9.30;99.90;;;;;;5030291;28;20026;-84
2022/12/21 05:16:15;;;;;;;145.83;42.67;;;9.30;99.90;;;;;;5014793;28;20075;-85
2022/12/21 05:18:41;;;;;;;131.73;42.93;;;9.30;99.90;;;;;;5014431;28;20021;-84
2022/12/21 05:21:06;;;;;;;126.93;42.90;;;9.30;99.90;;;;;;5029795;28;20033;-85
2022/12/21 05:23:32;;;;;;;138.97;44.37;;;9.20;99.90;;;;;;5014367;28;20180;-84
2022/12/21 05:26:00;;;;;;;213.43;49.60;;;9.30;99.90;;;;;;5029469;28;20041;-86
2022/12/21 05:28:26;;;;;;;139.33;42.97;;;9.30;99.90;;;;;;5029960;28;20034;-85
2022/12/21 05:30:51;;;;;;;161.57;46.37;;;9.30;99.90;;;;;;5029796;28;20030;-85
2022/12/21 05:33:17;;;;;;;184.23;46.37;;;9.20;99.90;;;;;;5013086;28;20030;-85
2022/12/21 05:35:42;;;;;;;175.70;48.33;;;9.20;99.90;;;;;;5029792;28;20434;-85
2022/12/21 05:38:08;;;;;;;185.87;49.80;;;9.20;99.90;;;;;;5029680;28;20062;-84
2022/12/21 05:40:34;;;;;;;147.73;45.93;;;9.20;99.90;;;;;;5029741;28;20109;-85
2022/12/21 05:43:04;;;;;;;152.23;46.53;;;9.20;99.90;;;;;;5014338;28;20034;-84
2022/12/21 05:45:30;;;;;;;155.90;45.77;;;9.20;99.90;;;;;;5014531;28;20026;-84
2022/12/21 05:47:55;;;;;;;219.33;50.90;;;9.20;99.90;;;;;;5029431;28;20398;-85
2022/12/21 05:50:21;;;;;;;169.43;48.60;;;9.20;99.90;;;;;;5029388;28;20030;-85
2022/12/21 05:52:47;;;;;;;145.43;44.90;;;9.20;99.90;;;;;;5029127;28;20526;-84
2022/12/21 05:55:13;;;;;;;156.57;49.97;;;9.20;99.90;;;;;;5029555;28;20029;-84
2022/12/21 05:57:38;;;;;;;170.90;50.90;;;9.20;99.90;;;;;;5029223;28;20030;-84
2022/12/21 06:00:05;;;;;;;161.83;49.57;;;9.20;99.90;;;;;;5014159;28;20041;-85
2022/12/21 06:02:31;;;;;;;152.73;51.77;;;9.20;99.90;;;;;;5030676;28;20037;-82
2022/12/21 06:04:56;;;;;;;165.73;48.90;;;9.20;99.90;;;;;;5037135;28;20036;-85
2022/12/21 06:07:22;;;;;;;153.77;48.53;;;9.20;99.90;;;;;;5025368;28;20034;-85
2022/12/21 06:09:48;;;;;;;153.80;51.27;;;9.20;99.90;;;;;;5048451;28;20113;-88
2022/12/21 06:12:13;;;;;;;165.87;52.67;;;9.20;99.90;;;;;;5041322;28;20129;-86
2022/12/21 06:14:39;;;;;;;172.97;54.27;;;9.20;99.90;;;;;;5039339;28;20137;-86
2022/12/21 06:17:04;;;;;;;155.23;51.90;;;9.20;99.90;;;;;;5016396;28;20050;-87
2022/12/21 06:19:30;;;;;;;153.13;50.30;;;9.20;99.90;;;;;;5034822;28;20029;-85
2022/12/21 06:21:56;;;;;;;160.87;50.50;;;9.10;99.90;;;;;;5028462;28;20066;-85
2022/12/21 06:24:21;;;;;;;147.97;50.93;;;9.10;99.90;;;;;;5043738;28;20552;-85
2022/12/21 06:26:47;;;;;;;158.70;49.90;;;9.10;99.90;;;;;;5028526;28;20030;-88
2022/12/21 06:29:12;;;;;;;139.63;46.17;;;9.00;99.90;;;;;;5043725;28;20025;-88
2022/12/21 06:31:38;;;;;;;157.87;52.17;;;9.00;99.90;;;;;;5047793;28;20091;-88
2022/12/21 06:34:04;;;;;;;162.17;50.13;;;9.00;99.90;;;;;;5031963;28;20103;-87
2022/12/21 06:36:31;;;;;;;143.53;48.20;;;9.00;99.90;;;;;;5031626;28;20092;-85
2022/12/21 06:38:57;;;;;;;133.17;46.87;;;9.00;99.90;;;;;;5030841;28;20132;-84
2022/12/21 06:41:23;;;;;;;148.63;49.07;;;9.10;99.90;;;;;;5033463;28;20065;-87
2022/12/21 06:43:50;;;;;;;145.60;49.93;;;9.00;99.90;;;;;;5032514;28;20033;-87
2022/12/21 06:46:17;;;;;;;142.77;47.63;;;9.10;99.90;;;;;;5032435;28;20045;-87
2022/12/21 06:48:43;;;;;;;157.50;50.23;;;9.00;99.90;;;;;;5048496;28;20034;-86
2022/12/21 06:51:18;;;;;;;147.23;48.73;;;9.00;99.90;;;;;;5048049;28;20033;-87
2022/12/21 06:53:46;;;;;;;146.30;45.80;;;9.00;99.90;;;;;;5030922;28;20114;-87
2022/12/21 06:56:15;;;;;;;146.60;46.97;;;9.00;99.90;;;;;;5033427;28;20071;-86
2022/12/21 06:58:41;;;;;;;146.10;48.50;;;9.00;99.90;;;;;;5033139;28;20470;-87
2022/12/21 07:01:12;;;;;;;150.27;46.97;;;9.00;99.90;;;;;;5032463;28;20029;-83
2022/12/21 07:03:39;;;;;;;132.83;45.77;;;9.00;99.90;;;;;;5031598;28;20033;-85
2022/12/21 07:06:05;;;;;;;130.47;45.70;;;9.00;99.90;;;;;;5013946;28;20029;-86
2022/12/21 07:08:31;;;;;;;146.47;47.67;;;9.00;99.90;;;;;;5032842;28;20033;-89
2022/12/21 07:10:59;;;;;;;126.90;44.17;;;9.00;99.90;;;;;;5032162;28;20117;-85
2022/12/21 07:13:26;;;;;;;119.47;42.73;;;9.00;99.90;;;;;;5032423;28;20132;-85
2022/12/21 07:15:52;;;;;;;135.80;46.53;;;8.90;99.90;;;;;;5015649;28;20029;-84
2022/12/21 07:18:18;;;;;;;126.00;46.23;;;8.90;99.90;;;;;;5019558;28;20498;-85
2022/12/21 07:20:47;;;;;;;139.03;44.90;;;9.00;99.90;;;;;;5037565;28;20025;-85
2022/12/21 07:23:13;;;;;;;133.60;45.43;;;9.00;99.90;;;;;;5035784;28;20041;-83
2022/12/21 07:25:38;;;;;;;125.17;44.03;;;8.90;99.90;;;;;;5035863;28;20076;-84
2022/12/21 07:28:04;;;;;;;137.23;47.23;;;8.90;99.90;;;;;;5035119;28;20033;-83
2022/12/21 07:30:31;;;;;;;118.70;43.87;;;8.90;99.90;;;;;;5034538;28;20017;-84
2022/12/21 07:32:57;;;;;;;119.20;42.77;;;8.80;99.90;;;;;;5035934;28;20025;-84
2022/12/21 07:35:24;;;;;;;123.87;45.00;;;8.90;99.90;;;;;;5036114;28;20028;-85
2022/12/21 07:37:51;;;;;;;122.80;43.97;;;8.80;99.90;;;;;;5034288;28;20462;-84
2022/12/21 07:40:17;;;;;;;119.43;43.50;;;8.80;99.90;;;;;;5035515;28;20025;-82
2022/12/21 07:42:44;;;;;;;116.53;42.07;;;8.80;99.90;;;;;;5034239;28;20029;-84
2022/12/21 07:45:10;;;;;;;122.00;44.27;;;8.80;99.90;;;;;;5050696;28;20038;-83
2022/12/21 07:47:36;;;;;;;128.67;45.07;;;8.80;99.90;;;;;;5035590;28;20056;-82
2022/12/21 07:50:03;;;;;;;127.63;44.80;;;8.80;99.90;;;;;;5050645;28;20033;-85
2022/12/21 07:52:30;;;;;;;128.73;44.57;;;8.80;99.90;;;;;;5051144;28;20040;-84
2022/12/21 07:54:56;;;;;;;123.87;44.53;;;8.80;99.90;;;;;;5035689;28;20040;-84
2022/12/21 07:57:22;;;;;;;122.30;42.40;;;8.80;99.90;;;;;;5035638;28;20022;-84
2022/12/21 07:59:47;;;;;;;119.13;43.73;;;8.80;99.90;;;;;;5021707;28;20466;-84
2022/12/21 08:02:13;;;;;;;120.80;43.87;;;8.80;99.90;;;;;;5056286;28;20037;-85
2022/12/21 08:04:39;;;;;;;132.37;44.17;;;8.80;99.90;;;;;;5022644;28;20029;-84
2022/12/21 08:07:05;;;;;;;118.30;43.80;;;8.80;99.90;;;;;;5038494;28;20022;-84
2022/12/21 08:09:32;;;;;;;131.37;45.23;;;8.80;99.90;;;;;;5036088;28;20036;-83
2022/12/21 08:11:57;;;;;;;116.77;46.13;;;8.80;99.90;;;;;;5034266;28;20025;-84
2022/12/21 08:14:23;;;;;;;124.60;46.67;;;8.80;99.90;;;;;;5034364;28;20028;-84
2022/12/21 08:16:49;;;;;;;122.67;45.03;;;8.80;99.90;;;;;;5034375;28;20385;-84
2022/12/21 08:19:14;;;;;;;122.50;44.87;;;8.70;99.90;;;;;;5034264;28;20022;-84
2022/12/21 08:21:40;;;;;;;126.50;45.63;;;8.70;99.90;;;;;;5051004;28;20180;-84
2022/12/21 08:24:06;;;;;;;107.60;41.60;;;8.80;99.90;;;;;;5017616;28;20474;-84
2022/12/21 08:26:32;;;;;;;114.43;43.13;;;8.70;99.90;;;;;;5035041;28;20026;-84
2022/12/21 08:28:58;;;;;;;106.43;42.53;;;8.70;99.90;;;;;;5033320;28;20421;-84
2022/12/21 08:31:23;;;;;;;105.00;41.57;;;8.80;99.90;;;;;;5017899;28;20485;-85
2022/12/21 08:33:49;;;;;;;101.97;40.70;;;8.70;99.90;;;;;;5035498;28;20025;-85
2022/12/21 08:36:17;;;;;;;97.60;40.33;;;8.70;99.90;;;;;;5034102;28;20053;-84
2022/12/21 08:38:44;;;;;;;87.63;37.10;;;8.70;99.90;;;;;;5035258;28;20021;-83
2022/12/21 08:41:10;;;;;;;79.87;34.33;;;8.70;99.90;;;;;;5034688;28;20021;-84
2022/12/21 08:43:37;;;;;;;80.23;33.57;;;8.60;99.90;;;;;;5033917;28;20042;-84
2022/12/21 08:46:07;;;;;;;84.87;34.60;;;8.60;99.90;;;;;;5035146;28;20034;-83
2022/12/21 08:48:33;;;;;;;80.67;34.33;;;8.60;99.90;;;;;;5034780;28;20025;-84
2022/12/21 08:50:59;;;;;;;72.50;33.83;;;8.70;99.90;;;;;;5033817;28;20452;-84
2022/12/21 08:53:26;;;;;;;78.93;34.00;;;8.70;99.90;;;;;;5034682;28;20531;-85
2022/12/21 08:55:52;;;;;;;78.83;33.27;;;8.60;99.90;;;;;;5033518;28;20627;-84
2022/12/21 08:58:18;;;;;;;76.83;33.37;;;8.70;99.90;;;;;;5035069;28;20021;-84
2022/12/21 09:00:44;;;;;;;72.70;32.03;;;8.70;99.90;;;;;;5033122;28;20044;-84
2022/12/21 09:03:10;;;;;;;60.83;30.67;;;8.80;99.90;;;;;;5035444;28;20049;-85
2022/12/21 09:05:36;;;;;;;62.30;31.03;;;8.90;99.90;;;;;;5033817;28;20143;-84
2022/12/21 09:08:03;;;;;;;62.03;28.73;;;9.00;99.90;;;;;;5038084;28;20051;-83
2022/12/21 09:10:29;;;;;;;52.80;27.17;;;9.10;99.90;;;;;;5041595;28;20029;-83
2022/12/21 09:12:55;;;;;;;48.57;25.87;;;9.20;99.90;;;;;;5037814;28;20022;-84
2022/12/21 09:15:21;;;;;;;48.30;24.30;;;9.30;99.90;;;;;;5034600;28;20026;-84
2022/12/21 09:17:47;;;;;;;41.03;22.23;;;9.30;99.90;;;;;;5038257;28;20022;-83
2022/12/21 09:20:13;;;;;;;42.07;20.90;;;9.40;99.90;;;;;;5041775;28;20112;-84
2022/12/21 09:22:39;;;;;;;45.27;21.33;;;9.40;99.90;;;;;;5038387;28;20482;-83
2022/12/21 09:25:06;;;;;;;36.83;18.97;;;9.40;99.90;;;;;;5017436;28;20026;-83
2022/12/21 09:27:32;;;;;;;43.53;20.47;;;9.40;99.90;;;;;;5033422;28;20018;-84
2022/12/21 09:29:57;;;;;;;43.13;21.63;;;9.40;99.90;;;;;;5033261;28;20033;-84
2022/12/21 09:32:23;;;;;;;40.83;21.63;;;9.40;99.90;;;;;;5049455;28;20025;-85
2022/12/21 09:34:49;;;;;;;41.93;21.67;;;9.30;99.90;;;;;;5032818;28;20462;-84
2022/12/21 09:37:15;;;;;;;39.47;20.43;;;9.30;99.90;;;;;;5033030;28;20087;-83
2022/12/21 09:39:41;;;;;;;42.40;21.70;;;9.30;99.90;;;;;;5032285;28;20033;-83
2022/12/21 09:42:22;;;;;;;38.57;20.90;;;9.30;99.90;;;;;;5033627;28;20042;-86
2022/12/21 09:44:50;;;;;;;41.83;21.50;;;9.30;99.90;;;;;;5033979;28;20091;-84
2022/12/21 09:47:25;;;;;;;36.73;19.87;;;9.30;99.90;;;;;;5034390;28;20033;-84
2022/12/21 09:49:56;;;;;;;39.20;20.00;;;9.30;99.90;;;;;;5033039;28;20021;-84
2022/12/21 09:52:45;;;;;;;49.43;21.87;;;9.30;99.90;;;;;;5034206;28;20022;-83
2022/12/21 09:55:18;;;;;;;45.27;21.63;;;9.30;99.90;;;;;;5033113;28;20026;-84
2022/12/21 09:57:44;;;;;;;41.77;22.97;;;9.30;99.90;;;;;;5032689;28;20378;-84
2022/12/21 10:00:19;;;;;;;47.50;23.73;;;9.40;99.90;;;;;;5032482;28;20452;-84
2022/12/21 10:03:00;;;;;;;47.23;23.77;;;9.40;99.90;;;;;;5031963;28;20454;-85
2022/12/21 10:05:40;;;;;;;39.33;21.23;;;9.40;99.90;;;;;;5032264;28;20029;-84
2022/12/21 10:08:11;;;;;;;42.23;21.17;;;9.40;99.90;;;;;;5033474;28;20029;-85
2022/12/21 10:11:08;;;;;;;39.73;20.60;;;9.40;99.90;;;;;;5033349;28;20025;-84
2022/12/21 10:13:40;;;;;;;44.67;21.13;;;9.40;99.90;;;;;;5033732;28;20055;-84
2022/12/21 10:16:19;;;;;;;41.47;20.53;;;9.40;99.90;;;;;;5034014;28;20030;-84
2022/12/21 10:19:08;;;;;;;39.63;19.43;;;9.40;99.90;;;;;;5032504;28;20036;-85
2022/12/21 10:21:53;;;;;;;37.63;18.77;;;9.40;99.90;;;;;;5032149;28;20026;-84
2022/12/21 10:24:30;;;;;;;41.00;21.07;;;9.40;99.90;;;;;;5033451;28;20107;-83
2022/12/21 10:27:10;;;;;;;44.40;21.60;;;9.40;99.90;;;;;;5031979;28;20049;-82
2022/12/21 10:29:39;;;;;;;38.73;20.33;;;9.40;99.90;;;;;;5032175;28;20377;-84
2022/12/21 10:32:10;;;;;;;42.40;20.63;;;9.40;99.90;;;;;;5031964;28;20021;-84
2022/12/21 10:34:36;;;;;;;43.97;20.27;;;9.40;99.90;;;;;;5032367;28;20036;-84
2022/12/21 10:37:12;;;;;;;45.27;20.67;;;9.40;99.90;;;;;;5031988;28;20142;-84
2022/12/21 10:39:37;;;;;;;43.27;20.33;;;9.40;99.90;;;;;;5032044;28;20365;-84
2022/12/21 10:42:22;;;;;;;39.43;21.17;;;9.40;99.90;;;;;;5033341;28;20117;-83
2022/12/21 10:44:50;;;;;;;42.37;20.50;;;9.40;99.90;;;;;;5033235;28;20108;-84
2022/12/21 10:47:19;;;;;;;40.00;22.23;;;9.40;99.90;;;;;;5032244;28;20022;-85
2022/12/21 10:49:53;;;;;;;43.43;21.33;;;9.40;99.90;;;;;;5031552;28;20117;-84
2022/12/21 10:52:53;;;;;;;41.65;21.73;;;9.40;99.90;;;;;;5034413;28;20437;-85
2022/12/21 10:55:18;;;;;;;41.80;23.23;;;9.40;99.90;;;;;;5014656;28;20044;-84
2022/12/21 10:57:52;;;;;;;50.23;24.43;;;9.50;99.90;;;;;;5035706;28;20038;-84
2022/12/21 11:00:26;;;;;;;44.35;23.48;;;9.40;99.90;;;;;;5037457;28;20053;-84
2022/12/21 11:02:56;;;;;;;44.67;24.13;;;9.40;99.90;;;;;;5036903;28;20041;-84
2022/12/21 11:05:29;;;;;;;49.50;25.80;;;9.50;99.90;;;;;;5035949;28;20099;-84
2022/12/21 11:08:15;;;;;;;45.90;24.67;;;9.50;99.90;;;;;;5035376;28;20482;-85
2022/12/21 11:10:44;;;;;;;47.63;26.10;;;9.40;99.90;;;;;;5036383;28;20037;-85
2022/12/21 11:13:11;;;;;;;56.00;29.77;;;9.40;99.90;;;;;;5035922;28;20104;-84
2022/12/21 11:15:38;;;;;;;51.93;29.17;;;9.50;99.90;;;;;;5035571;28;20370;-85
2022/12/21 11:18:04;;;;;;;48.13;28.17;;;9.60;99.90;;;;;;5052261;28;20088;-86
2022/12/21 11:20:31;;;;;;;51.63;30.87;;;9.80;99.90;;;;;;5037226;28;20029;-85
2022/12/21 11:23:01;;;;;;;54.78;29.92;;;10.00;99.90;;;;;;5052436;28;20045;-83
2022/12/21 11:25:29;;;;;;;47.53;27.60;;;10.20;99.90;;;;;;5036309;28;20076;-85
2022/12/21 11:28:00;;;;;;;45.28;26.83;;;10.40;99.90;;;;;;5035480;28;20029;-85
2022/12/21 11:30:31;;;;;;;44.47;27.63;;;10.60;99.90;;;;;;5035798;28;20029;-85
2022/12/21 11:32:59;;;;;;;43.75;27.00;;;10.70;99.90;;;;;;5036795;28;20540;-86
2022/12/21 11:35:35;;;;;;;45.92;26.73;;;10.80;99.90;;;;;;5038851;28;20029;-85
2022/12/21 11:38:13;;;;;;;45.65;26.75;;;10.90;99.90;;;;;;5035924;28;20041;-84
2022/12/21 11:40:54;;;;;;;43.20;26.15;;;11.00;99.90;;;;;;5037359;28;20044;-84
2022/12/21 11:43:19;;;;;;;34.92;22.27;;;11.20;99.90;;;;;;5035542;28;20483;-85
2022/12/21 11:46:00;;;;;;;38.28;23.52;;;11.30;99.90;;;;;;5035519;28;20125;-84
2022/12/21 11:48:57;;;;;;;35.92;22.30;;;11.20;99.90;;;;;;5034873;28;20029;-85
2022/12/21 11:51:51;;;;;;;36.35;21.35;;;11.30;99.90;;;;;;5034707;28;20072;-84
2022/12/21 11:54:23;;;;;;;35.03;19.38;;;11.40;99.90;;;;;;5035918;28;20068;-84
2022/12/21 11:56:59;;;;;;;32.85;19.13;;;11.40;99.90;;;;;;5035639;28;20026;-84
2022/12/21 11:59:59;;;;;;;28.23;16.30;;;11.50;99.90;;;;;;5034496;28;20072;-84
2022/12/21 12:02:43;;;;;;;32.42;16.73;;;11.60;99.90;;;;;;5035073;28;20034;-84
2022/12/21 12:05:46;;;;;;;28.55;14.88;;;11.50;99.90;;;;;;5036175;28;20036;-84
2022/12/21 12:08:12;;;;;;;29.42;14.95;;;11.50;99.90;;;;;;5035614;28;20026;-82
2022/12/21 12:10:56;;;;;;;26.95;13.98;;;11.40;99.90;;;;;;5034441;28;20032;-83
2022/12/21 12:13:59;;;;;;;34.85;14.20;;;11.30;99.90;;;;;;5035312;28;20029;-84
2022/12/21 12:16:41;;;;;;;24.35;12.55;;;11.30;99.90;;;;;;5034045;28;20035;-83
2022/12/21 12:19:42;;;;;;;26.70;13.70;;;11.20;99.90;;;;;;5035688;28;20030;-83
2022/12/21 12:22:10;;;;;;;29.45;14.60;;;11.00;99.90;;;;;;5021367;28;20478;-84
2022/12/21 12:24:54;;;;;;;33.28;14.57;;;10.80;99.90;;;;;;5033919;28;20087;-84
2022/12/21 12:27:41;;;;;;;32.42;17.35;;;10.80;99.90;;;;;;5034013;28;20437;-85
2022/12/21 12:30:17;;;;;;;28.60;16.85;;;10.70;99.90;;;;;;5033940;28;20036;-83
2022/12/21 12:32:52;;;;;;;31.57;18.20;;;10.60;99.90;;;;;;5035180;28;20377;-84
2022/12/21 12:35:33;;;;;;;31.47;17.33;;;10.40;99.90;;;;;;5033777;28;20167;-85
2022/12/21 12:38:14;;;;;;;31.43;17.57;;;10.40;99.90;;;;;;5033917;28;20040;-84
2022/12/21 12:40:43;;;;;;;28.90;16.87;;;10.40;99.90;;;;;;5033908;28;20047;-84
2022/12/21 12:43:08;;;;;;;31.00;17.13;;;10.40;99.90;;;;;;5033337;28;20116;-84
2022/12/21 12:45:34;;;;;;;31.47;18.23;;;10.30;99.90;;;;;;5033957;28;20033;-83
2022/12/21 12:48:11;;;;;;;27.13;17.50;;;10.30;99.90;;;;;;5033276;28;20124;-84
2022/12/21 12:51:00;;;;;;;29.77;17.20;;;10.30;99.90;;;;;;5035010;28;20474;-86
2022/12/21 12:53:35;;;;;;;31.13;17.90;;;10.20;99.90;;;;;;5034580;28;20100;-83
2022/12/21 12:56:03;;;;;;;27.87;16.63;;;10.20;99.90;;;;;;5035058;28;20032;-84
2022/12/21 12:58:35;;;;;;;32.43;18.47;;;10.20;99.90;;;;;;5034516;28;20516;-86